• Join FlightAware (Why Join?)
  • Login
  • US Flag 
08:40PM EDT


 

Airport Tracker/Info


-or-


 

Live Flight TrackerFlight Track Log ✈ DAL6140 ✈ 16-Apr-2013 ✈ KLGA - CYUL

Flight Track Log - Related Links

Times and Time Zones

All times are in EDT time to prevent confusion due to time zone crossing. See the DAL6140 flight status page for this flight to view local times or setup timezone preferences in your user account.

Time Position Orientation Groundspeed Altitude Reporting Facility
EDT Latitude Longitude Course Direction KTS MPH feet Rate Location/Type
03:31PM 40.7500 -73.8500 90° East 154 177 1,600  Level New York TRACON
03:32PM 40.7500 -73.7833 90° East 244 281 4,000 2,340 Climbing New York TRACON
03:34PM 40.8617 -73.6969 30° Northeast 292 336 8,500 2,280 Climbing Boston Center
03:35PM 40.9311 -73.6406 32° Northeast 297 342 10,700 1,980 Climbing Boston Center
03:36PM 41.0169 -73.5900 24° Northeast 322 371 12,400 1,680 Climbing Boston Center
03:37PM 41.1217 -73.5283 24° Northeast 348 400 14,100 1,680 Climbing Boston Center
03:38PM 41.2056 -73.4775 25° Northeast 374 430 15,800 1,740 Climbing Boston Center
03:39PM 41.3144 -73.4128 24° Northeast 380 437 17,700 1,560 Climbing Boston Center
03:40PM 41.4025 -73.3617 24° Northeast 380 437 19,000 1,380 Climbing Boston Center
03:41PM 41.5050 -73.3186 17° North 385 443 20,600 1,680 Climbing Boston Center
03:42PM 41.6092 -73.3231 358° North 364 419 22,400 1,800 Climbing Boston Center
03:43PM 41.7156 -73.3244 359° North 370 426 24,200 1,740 Climbing Boston Center
03:44PM 41.8217 -73.3258 359° North 370 426 25,900 1,680 Climbing Boston Center
03:45PM 41.9281 -73.3303 358° North 376 433 27,700 1,680 Climbing Boston Center
03:46PM 42.0322 -73.3317 359° North 376 433 29,400 1,620 Climbing Boston Center
03:47PM 42.1342 -73.3331 359° North 376 433 31,000 780 Climbing Boston Center
03:48PM 42.2469 -73.3347 359° North 383 441 31,000  Level Boston Center
03:49PM 42.3719 -73.3308 North 411 473 31,000  Level Boston Center
03:50PM 42.4928 -73.3325 359° North 433 498 31,000  Level Boston Center
03:51PM 42.6197 -73.3431 356° North 433 498 31,000  Level Boston Center
03:52PM 42.7303 -73.3417 North 412 474 31,000  Level Boston Center
03:53PM 42.8408 -73.3461 358° North 399 459 31,000  Level Boston Center
03:54PM 42.9469 -73.3450 360° North 388 447 31,000  Level Boston Center
03:55PM 43.0553 -73.3522 357° North 382 440 31,000  Level Boston Center
03:56PM 43.1614 -73.3653 355° North 382 440 31,000  Level Boston Center
03:57PM 43.2553 -73.3753 356° North 382 440 31,000  Level Boston Center
03:58PM 43.3633 -73.3883 355° North 387 445 31,000  Level Boston Center
03:59PM 43.4781 -73.3986 356° North 392 451 31,000  Level Boston Center
04:00PM 43.5925 -73.4089 356° North 397 457 31,000  Level Boston Center
04:01PM 43.7069 -73.4194 356° North 413 475 31,000  Level Boston Center
04:02PM 43.8278 -73.4331 355° North 429 494 31,000  Level Boston Center
04:03PM 43.9486 -73.4464 355° North 434 499 31,000  Level Boston Center
04:04PM 44.0733 -73.4572 356° North 442 509 31,000 -960 Level Boston Center
04:05PM 44.1942 -73.4708 355° North 437 503 29,100 -2,460 Descending Boston Center
04:06PM 44.3067 -73.4844 355° North 419 482 26,200 -2,940 Descending Boston Center
04:07PM 44.4189 -73.4950 356° North 401 461 23,300 -2,880 Descending Boston Center
04:08PM 44.5231 -73.5058 356° North 387 445 20,400 -3,000 Descending Boston Center
04:09PM 44.6231 -73.5192 355° North 373 429 17,500 -2,400 Descending Boston Center
04:10PM 44.7186 -73.5269 357° North 355 409 15,700 -1,860 Descending Boston Center
04:11PM 44.8164 -73.5403 354° North 355 409 13,800 -1,860 Descending Boston Center
04:12PM 44.9247 -73.5511 356° North 350 403 12,000 -1,380 Descending Boston Center
04:13PM 45.0167 -73.5500 360° North 340 391 11,000 -900 Descending Montreal Center
04:14PM 45.1167 -73.5667 353° North 320 368 10,200 -1,140 Descending Montreal Center
04:15PM 45.1833 -73.5667 360° North 290 334 8,800 -1,140 Descending Montreal Center
04:16PM 45.2667 -73.5833 352° North 280 322 8,000 -900 Descending Montreal Center
04:17PM 45.3333 -73.5833 360° North 260 299 7,000 -1,020 Descending Montreal Center
04:18PM 45.4000 -73.5500 19° North 270 311 6,000 -1,320 Descending Montreal Center
04:19PM 45.4833 -73.5000 23° Northeast 290 334 4,400 -1,140 Descending Montreal Center
04:20PM 45.5500 -73.4833 10° North 240 276 3,800 -720 Descending Montreal Center
04:21PM 45.5833 -73.5333 314° West 210 242 3,000 -600 Descending Montreal Center
04:22PM 45.5667 -73.5667 234° Southwest 180 207 2,700 -600 Descending Montreal Center
04:23PM 45.5333 -73.6167 226° Southwest 160 184 1,800 -780 Descending Montreal Center
04:24PM 45.5000 -73.6500 215° Southwest 110 127 1,200 -600 Descending Montreal Center
04:25PM 45.4833 -73.6667 215° Southwest 110 127 700 -540 Descending Montreal Center